Change the Weather History Date:

Sunday, October 28, 2012

  Actual Average (KENW) Record (KENW)
Temperature  
Mean Temperature 37 °F -  
Max Temperature 44 °F 55 °F 73 °F (1948)
Min Temperature 30 °F 39 °F 23 °F (1959)
Degree Days  
Heating Degree Days 28    
Moisture  
Dew Point 27 °F    
Average Humidity 70    
Maximum Humidity 87    
Minimum Humidity 53    
Precipitation  
Precipitation 0.00 in - - ()
Sea Level Pressure  
Sea Level Pressure 30.29 in    
Wind  
Wind Speed 6 mph (North)    
Max Wind Speed 14 mph    
Max Gust Speed 22 mph    
Visibility 10 miles    
Events      
Averages and records for this station are not official NWS values.
T = Trace of Precipitation, MM = Missing Value Source: NWS Daily Summary

Daily Weather History Graph

Daily Weather History Graph

Search for Another Location

Airport or City:

Trip Planner

Search our weather history database for the weather conditions in past years. The results will help you decide how hot, cold, wet, or windy it might be!

Date:

Astronomy

Oct. 28, 2012 Rise Set
Actual Time 7:22 AM CDT 5:50 PM CDT
Civil Twilight 6:53 AM CDT 6:19 PM CDT
Nautical Twilight 6:20 AM CDT 6:52 PM CDT
Astronomical Twilight 5:47 AM CDT 7:25 PM CDT
Moon 5:08 PM CDT (10/28) 6:15 AM CDT (10/28)
Length of Visible Light 11h 26m
Length of Day
10h 27m
Waxing Gibbous, 99% of the Moon is Illuminated
Oct 28
Waxing Gibbous
Oct 29
Full
Nov 6
Last Quarter
Nov 13
New
Nov 20
First Quarter

Hourly Weather History & Observations

Time (CDT) Temp. Windchill Dew Point Humidity Pressure Visibility Wind Dir Wind Speed Gust Speed Precip Events Conditions
12:15 AM 32.0 °F 28.7 °F 21.2 °F 64% 30.30 in 10.0 mi NNW 3.5 mph - N/A   Clear
12:35 AM 30.2 °F 25.4 °F 23.0 °F 75% 30.30 in 10.0 mi NNW 4.6 mph - N/A   Clear
12:55 AM 30.2 °F 25.4 °F 23.0 °F 75% 30.30 in 10.0 mi North 4.6 mph - N/A   Clear
1:15 AM 32.0 °F 27.5 °F 21.2 °F 64% 30.30 in 10.0 mi North 4.6 mph - N/A   Clear
1:55 AM 30.2 °F 26.7 °F 23.0 °F 75% 30.30 in 10.0 mi NNW 3.5 mph - N/A   Scattered Clouds
2:15 AM 30.2 °F 26.7 °F 23.0 °F 75% 30.30 in 10.0 mi North 3.5 mph - N/A   Clear
2:35 AM 30.2 °F 25.4 °F 23.0 °F 75% 30.30 in 10.0 mi North 4.6 mph - N/A   Clear
2:55 AM 30.2 °F 24.3 °F 23.0 °F 75% 30.30 in 10.0 mi North 5.8 mph - N/A   Clear
3:15 AM 30.2 °F 24.3 °F 23.0 °F 75% 30.30 in 10.0 mi NNW 5.8 mph - N/A   Clear
3:35 AM 30.2 °F 23.4 °F 23.0 °F 75% 30.29 in 10.0 mi North 6.9 mph - N/A   Clear
3:55 AM 32.0 °F 24.8 °F 23.0 °F 69% 30.29 in 10.0 mi North 8.1 mph - N/A   Scattered Clouds
4:15 AM 32.0 °F 24.2 °F 23.0 °F 69% 30.29 in 10.0 mi NNW 9.2 mph - N/A   Overcast
4:35 AM 32.0 °F 25.6 °F 23.0 °F 69% 30.30 in 10.0 mi North 6.9 mph - N/A   Overcast
4:55 AM 32.0 °F 24.2 °F 23.0 °F 69% 30.30 in 10.0 mi North 9.2 mph - N/A   Mostly Cloudy
5:15 AM 32.0 °F 26.4 °F 23.0 °F 69% 30.30 in 10.0 mi North 5.8 mph - N/A   Overcast
5:35 AM 32.0 °F 25.6 °F 23.0 °F 69% 30.30 in 10.0 mi North 6.9 mph - N/A   Overcast
5:55 AM 32.0 °F 25.6 °F 23.0 °F 69% 30.30 in 10.0 mi North 6.9 mph - N/A   Overcast
6:15 AM 32.0 °F 26.4 °F 23.0 °F 69% 30.30 in 10.0 mi North 5.8 mph - N/A   Overcast
6:35 AM 32.0 °F 26.4 °F 21.2 °F 64% 30.30 in 10.0 mi North 5.8 mph - N/A   Mostly Cloudy
6:55 AM 32.0 °F 25.6 °F 21.2 °F 64% 30.31 in 10.0 mi North 6.9 mph - N/A   Scattered Clouds
7:15 AM 32.0 °F 26.4 °F 21.2 °F 64% 30.31 in 10.0 mi North 5.8 mph - N/A   Scattered Clouds
7:35 AM 32.0 °F 25.6 °F 23.0 °F 69% 30.31 in 10.0 mi North 6.9 mph - N/A   Mostly Cloudy
7:55 AM 32.0 °F 25.6 °F 23.0 °F 69% 30.31 in 10.0 mi North 6.9 mph - N/A   Overcast
8:15 AM 32.0 °F 26.4 °F 23.0 °F 69% 30.31 in 10.0 mi North 5.8 mph - N/A   Scattered Clouds
8:55 AM 33.8 °F 27.7 °F 24.8 °F 70% 30.32 in 10.0 mi North 6.9 mph - N/A   Mostly Cloudy
9:15 AM 33.8 °F 27.0 °F 24.8 °F 70% 30.32 in 10.0 mi North 8.1 mph - N/A   Overcast
9:35 AM 35.6 °F 30.7 °F 26.6 °F 70% 30.32 in 10.0 mi North 5.8 mph - N/A   Overcast
9:55 AM 37.4 °F 32.1 °F 28.4 °F 70% 30.31 in 10.0 mi North 6.9 mph - N/A   Mostly Cloudy
10:15 AM 37.4 °F 32.1 °F 30.2 °F 75% 30.31 in 10.0 mi North 6.9 mph - N/A   Scattered Clouds
10:35 AM 39.2 °F 31.6 °F 32.0 °F 75% 30.31 in 10.0 mi NNE 12.7 mph - N/A   Mostly Cloudy
10:55 AM 41.0 °F 34.7 °F 32.0 °F 70% 30.31 in 10.0 mi NNE 10.4 mph - N/A   Overcast
11:15 AM 41.0 °F 34.7 °F 32.0 °F 70% 30.31 in 10.0 mi NE 10.4 mph - N/A   Mostly Cloudy
11:35 AM 41.0 °F 33.9 °F 32.0 °F 70% 30.31 in 10.0 mi North 12.7 mph - N/A   Overcast
11:55 AM 41.0 °F 34.7 °F 32.0 °F 70% 30.31 in 10.0 mi NNE 10.4 mph 17.3 mph N/A   Overcast
12:15 PM 42.8 °F 37.0 °F 32.0 °F 66% 30.30 in 10.0 mi North 10.4 mph 17.3 mph N/A   Overcast
12:35 PM 42.8 °F 37.0 °F 32.0 °F 66% 30.29 in 10.0 mi NNE 10.4 mph 16.1 mph N/A   Mostly Cloudy
12:55 PM 42.8 °F 35.8 °F 32.0 °F 66% 30.29 in 10.0 mi NNE 13.8 mph 19.6 mph N/A   Mostly Cloudy
1:15 PM 44.6 °F 39.2 °F 32.0 °F 61% 30.28 in 10.0 mi NE 10.4 mph 17.3 mph N/A   Mostly Cloudy
1:35 PM 44.6 °F 38.8 °F 32.0 °F 61% 30.28 in 10.0 mi ENE 11.5 mph 16.1 mph N/A   Mostly Cloudy
1:55 PM 42.8 °F 37.0 °F 30.2 °F 61% 30.28 in 10.0 mi ENE 10.4 mph - N/A   Mostly Cloudy
2:15 PM 44.6 °F 40.7 °F 30.2 °F 57% 30.28 in 10.0 mi ENE 6.9 mph - N/A   Scattered Clouds
2:35 PM 44.6 °F 38.4 °F 30.2 °F 57% 30.27 in 10.0 mi NE 12.7 mph 21.9 mph N/A   Mostly Cloudy
2:55 PM 44.6 °F 39.2 °F 30.2 °F 57% 30.27 in 10.0 mi NE 10.4 mph - N/A   Scattered Clouds
3:15 PM 44.6 °F 39.2 °F 30.2 °F 57% 30.27 in 10.0 mi NE 10.4 mph 19.6 mph N/A   Scattered Clouds
3:35 PM 44.6 °F 40.2 °F 30.2 °F 57% 30.27 in 10.0 mi NE 8.1 mph - N/A   Scattered Clouds
3:55 PM 44.6 °F 38.8 °F 28.4 °F 53% 30.27 in 10.0 mi NNE 11.5 mph 17.3 mph N/A   Scattered Clouds
4:15 PM 44.6 °F 38.8 °F 28.4 °F 53% 30.27 in 10.0 mi NNE 11.5 mph - N/A   Clear
4:35 PM 42.8 °F 37.5 °F 28.4 °F 57% 30.27 in 10.0 mi ENE 9.2 mph - N/A   Clear
4:55 PM 42.8 °F 38.0 °F 28.4 °F 57% 30.28 in 10.0 mi NE 8.1 mph - N/A   Clear
5:15 PM 41.0 °F 36.4 °F 28.4 °F 61% 30.28 in 10.0 mi NE 6.9 mph - N/A   Clear
5:35 PM 41.0 °F 37.1 °F 28.4 °F 61% 30.28 in 10.0 mi NE 5.8 mph - N/A   Clear
5:55 PM 37.4 °F 32.8 °F 30.2 °F 75% 30.28 in 10.0 mi NE 5.8 mph - N/A   Clear
6:15 PM 37.4 °F 33.8 °F 28.4 °F 70% 30.29 in 10.0 mi NE 4.6 mph - N/A   Clear
6:35 PM 35.6 °F 31.7 °F 28.4 °F 75% 30.29 in 10.0 mi NE 4.6 mph - N/A   Clear
6:55 PM 35.6 °F 31.7 °F 28.4 °F 75% 30.29 in 10.0 mi NNE 4.6 mph - N/A   Clear
7:15 PM 35.6 °F 30.7 °F 28.4 °F 75% 30.29 in 10.0 mi North 5.8 mph - N/A   Clear
7:35 PM 33.8 °F 29.6 °F 28.4 °F 81% 30.29 in 10.0 mi North 4.6 mph - N/A   Clear
7:55 PM 33.8 °F 28.6 °F 28.4 °F 81% 30.28 in 10.0 mi NNW 5.8 mph - N/A   Clear
8:15 PM 33.8 °F 28.6 °F 30.2 °F 87% 30.28 in 10.0 mi NNW 5.8 mph - N/A   Clear
8:35 PM 33.8 °F 28.6 °F 30.2 °F 87% 30.28 in 10.0 mi North 5.8 mph - N/A   Clear
9:15 PM 32.0 °F 26.4 °F 28.4 °F 87% 30.29 in 10.0 mi North 5.8 mph - N/A   Clear
9:55 PM 32.0 °F 26.4 °F 28.4 °F 87% 30.30 in 10.0 mi NNW 5.8 mph - N/A   Clear
10:15 PM 32.0 °F 28.7 °F 28.4 °F 87% 30.30 in 10.0 mi NNW 3.5 mph - N/A   Clear
10:35 PM 32.0 °F 26.4 °F 28.4 °F 87% 30.30 in 10.0 mi NNW 5.8 mph - N/A   Clear
10:55 PM 32.0 °F 27.5 °F 28.4 °F 87% 30.30 in 10.0 mi NNW 4.6 mph - N/A   Clear
11:15 PM 32.0 °F 27.5 °F 28.4 °F 87% 30.30 in 10.0 mi North 4.6 mph - N/A   Clear
11:55 PM 32.0 °F 28.7 °F 28.4 °F 87% 30.29 in 10.0 mi North 3.5 mph - N/A   Clear